Airfield :
LOGIN :

Register | Disclaimer

   EN    FR    IT 

 










Legend :    VFR   Marginal VFR   IFR   Intensive IFR   Very Intensive IFR
Visi :
Ceiling :
>= 8 km
>= 3000ft
5 to 8 km
1000 to 3000 ft
1500m to 5 km
500 to 1000 ft
800 to 1500m
200 to 500 ft
< 800m
< 200 ft
Symbols :   Thunderstorms  Fog  Heavy snow  Heavy precipitations  Wind > 20 kt
SIGMETs :     Misc.  Thunderstorms  Icing  Turbulence  Mountain Waves  Volcanic Ashes







- Airport Elevation : 36 ft
- IATA code : LTQ
- Download approach charts


LFAT - Le Touquet

CURRENT METAR :
  • 230500Z AUTO VRB02KT 3900 BR OVC005/// 09/08 Q1029

EXPIRED METARs :
  • 230430Z AUTO 10001KT 4000 BR BKN005/// OVC009/// 09/08 Q1029
  • 230400Z AUTO 00000KT 6000 BKN007/// OVC014/// 08/08 Q1029
  • 230330Z AUTO 23002KT 9000 BKN010/// BKN014/// OVC030/// 08/07 Q1029
  • 230300Z AUTO 22003KT 9000 SCT023/// OVC028/// 08/07 Q1029
  • 230230Z AUTO 00000KT 8000 OVC023/// 09/07 Q1029
  • 230200Z AUTO 14002KT 9000 OVC019/// 09/07 Q1029

Expired Forecast.
ATIS : +33 3 21 06 62 84
No reported NOTAMs for that airfield.



MET'MAP, your aeronautical weather chart ! - Copyright ORBIFLY December 2007 - Disclaimer

ORBIFLY MET'MAP TEAM :

Programming & Development : Alexandra Zaïnal
Concept & Development : Baudouin d'Aumeries
Co-Development & Prog : Marc-Olivier Méhu
Technical & hardware support : Manuel Goepfert

Contact : metmap@orbifly.com




SOURCES & CREDITS :

   NOAA